首页
METAR-TAF:

METAR-TAF

机场 :

斯波坎国际机场

斯波坎, 华盛顿, 美国

纬度: 47-37-17N, 经度: 117-31-40W, 海拔: 723米

当前天气观测

该预报发布于1小时和16分钟前的10:53 UTC
风速17节,风向南转西南
温度 9°C
湿度 46%
气压 1010 hPa
能見度: 16.1公里
少量云层高于12000英尺
多云层高于23000英尺

METAR: KGEG 151053Z 21017KT 10SM FEW120 BKN230 09/M02 A2983 RMK AO2 PK WND 20026/1033 SLP093 T00891017

时间: 05:09 (12:09 UTC)

预报

该预报发布于49分钟前的11:20 UTC
预报有效从15日的 12点(UTC)到 16日的 12点(UTC)
风速16节,风向南转西南,有时为23节阵风
能見度: 10公里
少量云层高于12000英尺
散云层高于25000英尺
从 15日的 1600点(UTC)
风速19节,风向西南,有时为26节阵风
能見度: 10公里
少量云层高于3000英尺
多云层高于25000英尺
从 15日的 2200点(UTC)
风速21节,风向西转西南,有时为28节阵风
能見度: 10公里
散云层高于5000英尺
散云层高于25000英尺
从 16日的 1100点(UTC)
风速13节,风向西南
能見度: 10公里
多云层高于25000英尺

TAF: KGEG 151120Z 1512/1612 21016G23KT P6SM FEW120 SCT250 FM151600 22019G26KT P6SM FEW030 BKN250 FM152200 24021G28KT P6SM SCT050 SCT250 FM161100 22013KT P6SM BKN250

超过4000个机场的气象观测和天气预报(METAR&TAF报告)。

可查询的气象台以黄色和红色小点在地图上表示。

将鼠标移到小点上方,可查看气象台名称。

然后点击查看天气观测和预报。

如需切换地图:点击带黑十字的绿色按钮放大地图;点击带横线的绿色按钮缩小地图;或者点击绿色箭头查看邻近地区的地图。


METAR-TAF: